Tropical Cyclones
[Index]
Main Index Home Page Stock Weather Photos Extreme Storms Discussion Storm News and Storm Chasing Reports Tropical Cyclones / Hurricanes / Typhoons Weather Data and Links Wild Fires / Bushfires Weather Observation Techniques Weather Picture Catalogue Tornado Pictures and Reports Stock Video Footage and DVDs for sale
Season 2004-2005 Tropical Cyclone VIVIENNE Track Map
Season 2004-2005 Summaries: [BoM-AU] [JTWC-AU] [JTWC-SIO] [JTWC-SPAC] [JTWC-SH]
<<- Previous TC | BoM 2004-2005 Season | Next TC ->>

click for intensity scale information  Lat/long Grid: Show Hide

 Date Labels: Show Hide

Bureau of Meteorology Tropical Cyclone Data

Name: VIVIENNE
Number: 885 / 200405_06

04 Feb 2005 00:00 UTC to 09 Feb 2005 12:00 UTC

    date/time    lat    long    hPa   cat  kts
2005-02-04 00   14.5   118.0   1005         25          
2005-02-04 06   14.8   118.0   1005         25          
2005-02-04 12   15.0   117.9   1005         25          
2005-02-04 18   15.2   117.8   1000         25          
2005-02-05 00   15.4   117.7    995    1    30          
2005-02-05 06   15.7   117.3    995    1    30          
2005-02-05 12   16.0   117.0    995    1    30          
2005-02-05 18   16.0   116.7    995    1    30          
2005-02-06 00   16.2   116.5    995    1    30          
2005-02-06 06   16.4   116.3    995    1    30          
2005-02-06 12   16.5   116.4    995    1    30          
2005-02-06 18   16.5   116.5    995    1    30          
2005-02-07 00   16.5   116.5    995    1    30          
2005-02-07 06   16.4   116.5    995    1    30          
2005-02-07 12   16.3   116.5    995    1    30          
2005-02-07 18   16.1   116.3    995    1    30          
2005-02-08 00   15.9   116.1    990    1    35          
2005-02-08 06   15.6   116.1    990    1    35          
2005-02-08 12   15.4   116.2    992    1    30          
2005-02-08 18   15.6   116.5    995    1    25          
2005-02-09 00   15.9   116.8   1000         20          
2005-02-09 06   16.1   117.0   1005         20          
2005-02-09 12   16.3   117.1   1005         20          
Winds are 10-min average.

Tropical cyclone tracks developed by Michael Bath using data from the Bureau of Meteorology and Google Maps.


[Australian Severe Weather index] [Copyright Notice] [Email Contacts] [Search This Site] [Privacy Policy]
Document: tropical_cyclone_vivienne.htm Updated: 29 June 2017